Weather at Ørsta-Volda Airport, Hovden

Public forecast

Using degrees Celsius for public forecast. Weather courtesy of forecast.io.

Current aviation weather report (METAR) for Ørsta-Volda Airport, Hovden

2024/05/21 14:20 (retrieved 12 minutes ago)

ENOV 211420Z VRB04KT CAVOK 22/07 Q1019 RMK WIND RWY24 30007KT WIND 2090FT 28007KT

Closest aviation forecast (TAF) to Ørsta-Volda Airport, Hovden

Closest forecast is Bergen Airport, Flesland, 115.9 nm (214.7 km) SSW.

2024/05/21 12:37 (retrieved 2 hours ago)

TAF ENBR 211100Z 2112/2212 25007KT CAVOK BECMG 2113/2115 33010KT BECMG 2120/2122 12005KT